sensor_id;sensor_type;location;lat;lon;timestamp;P1;durP1;ratioP1;P2;durP2;ratioP2
47309;SDS011;33046;52.270;6.832;2022-11-20T00:01:20;12.95;;;9.15;;
47309;SDS011;33046;52.270;6.832;2022-11-20T00:03:28;11.90;;;8.25;;
47309;SDS011;33046;52.270;6.832;2022-11-20T00:05:34;12.63;;;9.48;;
47309;SDS011;33046;52.270;6.832;2022-11-20T00:07:43;12.38;;;9.25;;
47309;SDS011;33046;52.270;6.832;2022-11-20T00:09:49;14.57;;;8.82;;
47309;SDS011;33046;52.270;6.832;2022-11-20T00:11:56;13.15;;;9.43;;
47309;SDS011;33046;52.270;6.832;2022-11-20T00:14:03;13.07;;;9.02;;
47309;SDS011;33046;52.270;6.832;2022-11-20T00:16:10;15.88;;;11.10;;
47309;SDS011;33046;52.270;6.832;2022-11-20T00:18:18;14.75;;;10.55;;
47309;SDS011;33046;52.270;6.832;2022-11-20T00:20:25;14.50;;;10.38;;
47309;SDS011;33046;52.270;6.832;2022-11-20T00:22:31;16.67;;;9.43;;
47309;SDS011;33046;52.270;6.832;2022-11-20T00:24:40;13.20;;;8.90;;
47309;SDS011;33046;52.270;6.832;2022-11-20T00:26:48;12.25;;;8.82;;
47309;SDS011;33046;52.270;6.832;2022-11-20T00:28:56;14.95;;;8.18;;
47309;SDS011;33046;52.270;6.832;2022-11-20T00:31:05;12.88;;;8.50;;
47309;SDS011;33046;52.270;6.832;2022-11-20T00:33:13;13.27;;;8.50;;
47309;SDS011;33046;52.270;6.832;2022-11-20T00:35:19;10.80;;;8.23;;
47309;SDS011;33046;52.270;6.832;2022-11-20T00:37:26;12.25;;;8.40;;
47309;SDS011;33046;52.270;6.832;2022-11-20T00:39:33;11.50;;;9.55;;
47309;SDS011;33046;52.270;6.832;2022-11-20T00:41:41;18.05;;;10.48;;
47309;SDS011;33046;52.270;6.832;2022-11-20T00:43:48;13.80;;;9.50;;
47309;SDS011;33046;52.270;6.832;2022-11-20T00:45:56;13.77;;;10.05;;
47309;SDS011;33046;52.270;6.832;2022-11-20T00:48:03;11.82;;;9.20;;
47309;SDS011;33046;52.270;6.832;2022-11-20T00:50:10;13.20;;;9.52;;
47309;SDS011;33046;52.270;6.832;2022-11-20T00:52:17;12.13;;;8.23;;
47309;SDS011;33046;52.270;6.832;2022-11-20T00:54:24;12.48;;;8.45;;
47309;SDS011;33046;52.270;6.832;2022-11-20T00:56:31;8.98;;;7.55;;
47309;SDS011;33046;52.270;6.832;2022-11-20T00:58:39;11.05;;;7.93;;
47309;SDS011;33046;52.270;6.832;2022-11-20T01:00:47;9.75;;;7.95;;
47309;SDS011;33046;52.270;6.832;2022-11-20T01:02:55;10.93;;;8.20;;
47309;SDS011;33046;52.270;6.832;2022-11-20T01:05:02;10.80;;;8.30;;
47309;SDS011;33046;52.270;6.832;2022-11-20T01:07:09;10.70;;;7.75;;
47309;SDS011;33046;52.270;6.832;2022-11-20T01:09:16;13.18;;;9.70;;
47309;SDS011;33046;52.270;6.832;2022-11-20T01:11:23;10.60;;;8.75;;
47309;SDS011;33046;52.270;6.832;2022-11-20T01:13:32;13.98;;;10.48;;
47309;SDS011;33046;52.270;6.832;2022-11-20T01:15:40;13.43;;;9.45;;
47309;SDS011;33046;52.270;6.832;2022-11-20T01:17:46;13.20;;;9.98;;
47309;SDS011;33046;52.270;6.832;2022-11-20T01:19:53;15.15;;;8.93;;
47309;SDS011;33046;52.270;6.832;2022-11-20T01:22:00;12.27;;;9.18;;
47309;SDS011;33046;52.270;6.832;2022-11-20T01:24:08;13.27;;;9.25;;
47309;SDS011;33046;52.270;6.832;2022-11-20T01:26:18;12.27;;;9.85;;
47309;SDS011;33046;52.270;6.832;2022-11-20T01:28:26;12.88;;;9.55;;
47309;SDS011;33046;52.270;6.832;2022-11-20T01:30:32;13.38;;;9.23;;
47309;SDS011;33046;52.270;6.832;2022-11-20T01:32:40;13.02;;;8.27;;
47309;SDS011;33046;52.270;6.832;2022-11-20T01:34:47;14.10;;;9.10;;
47309;SDS011;33046;52.270;6.832;2022-11-20T01:36:54;9.52;;;7.90;;
47309;SDS011;33046;52.270;6.832;2022-11-20T01:39:02;12.88;;;8.70;;
47309;SDS011;33046;52.270;6.832;2022-11-20T01:41:11;13.60;;;8.20;;
47309;SDS011;33046;52.270;6.832;2022-11-20T01:43:19;12.52;;;7.40;;
47309;SDS011;33046;52.270;6.832;2022-11-20T01:45:46;10.23;;;7.57;;
47309;SDS011;33046;52.270;6.832;2022-11-20T01:48:15;14.15;;;8.50;;
47309;SDS011;33046;52.270;6.832;2022-11-20T01:50:24;11.48;;;8.77;;
47309;SDS011;33046;52.270;6.832;2022-11-20T01:52:33;12.57;;;8.25;;
47309;SDS011;33046;52.270;6.832;2022-11-20T01:54:43;11.70;;;8.02;;
47309;SDS011;33046;52.270;6.832;2022-11-20T01:56:53;15.55;;;9.88;;
47309;SDS011;33046;52.270;6.832;2022-11-20T01:59:04;16.05;;;10.75;;
47309;SDS011;33046;52.270;6.832;2022-11-20T02:01:13;17.60;;;10.88;;
47309;SDS011;33046;52.270;6.832;2022-11-20T02:03:21;17.25;;;11.38;;
47309;SDS011;33046;52.270;6.832;2022-11-20T02:05:28;17.30;;;10.90;;
47309;SDS011;33046;52.270;6.832;2022-11-20T02:07:39;16.45;;;10.70;;
47309;SDS011;33046;52.270;6.832;2022-11-20T02:09:47;17.50;;;10.40;;
47309;SDS011;33046;52.270;6.832;2022-11-20T02:11:53;18.52;;;11.55;;
47309;SDS011;33046;52.270;6.832;2022-11-20T02:14:02;16.25;;;10.60;;
47309;SDS011;33046;52.270;6.832;2022-11-20T02:16:10;14.80;;;10.32;;
47309;SDS011;33046;52.270;6.832;2022-11-20T02:18:19;14.65;;;9.52;;
47309;SDS011;33046;52.270;6.832;2022-11-20T02:20:28;13.00;;;9.18;;
47309;SDS011;33046;52.270;6.832;2022-11-20T02:22:35;16.90;;;10.00;;
47309;SDS011;33046;52.270;6.832;2022-11-20T02:24:49;18.10;;;9.15;;
47309;SDS011;33046;52.270;6.832;2022-11-20T02:26:57;16.92;;;10.27;;
47309;SDS011;33046;52.270;6.832;2022-11-20T02:29:07;18.10;;;10.43;;
47309;SDS011;33046;52.270;6.832;2022-11-20T02:31:13;12.43;;;9.10;;
47309;SDS011;33046;52.270;6.832;2022-11-20T02:33:20;12.43;;;9.68;;
47309;SDS011;33046;52.270;6.832;2022-11-20T02:35:40;13.77;;;9.23;;
47309;SDS011;33046;52.270;6.832;2022-11-20T02:37:50;12.15;;;9.27;;
47309;SDS011;33046;52.270;6.832;2022-11-20T02:40:01;13.02;;;8.95;;
47309;SDS011;33046;52.270;6.832;2022-11-20T02:42:08;13.43;;;8.15;;
47309;SDS011;33046;52.270;6.832;2022-11-20T02:44:14;11.85;;;8.40;;
47309;SDS011;33046;52.270;6.832;2022-11-20T02:46:21;11.93;;;8.38;;
47309;SDS011;33046;52.270;6.832;2022-11-20T02:48:28;11.15;;;7.53;;
47309;SDS011;33046;52.270;6.832;2022-11-20T02:50:38;10.52;;;8.48;;
47309;SDS011;33046;52.270;6.832;2022-11-20T02:52:45;14.77;;;9.20;;
47309;SDS011;33046;52.270;6.832;2022-11-20T02:54:52;13.35;;;8.48;;
47309;SDS011;33046;52.270;6.832;2022-11-20T02:57:00;12.32;;;8.82;;
47309;SDS011;33046;52.270;6.832;2022-11-20T02:59:07;12.20;;;8.95;;
47309;SDS011;33046;52.270;6.832;2022-11-20T03:01:14;12.80;;;8.98;;
47309;SDS011;33046;52.270;6.832;2022-11-20T03:03:21;12.57;;;9.07;;
47309;SDS011;33046;52.270;6.832;2022-11-20T03:05:27;13.00;;;9.25;;
47309;SDS011;33046;52.270;6.832;2022-11-20T03:07:34;12.52;;;8.73;;
47309;SDS011;33046;52.270;6.832;2022-11-20T03:09:41;11.30;;;8.68;;
47309;SDS011;33046;52.270;6.832;2022-11-20T03:11:48;13.27;;;9.27;;
47309;SDS011;33046;52.270;6.832;2022-11-20T03:13:56;12.48;;;8.52;;
47309;SDS011;33046;52.270;6.832;2022-11-20T03:16:07;12.38;;;9.52;;
47309;SDS011;33046;52.270;6.832;2022-11-20T03:18:15;11.50;;;8.70;;
47309;SDS011;33046;52.270;6.832;2022-11-20T03:20:22;13.10;;;9.47;;
47309;SDS011;33046;52.270;6.832;2022-11-20T03:22:29;18.03;;;10.83;;
47309;SDS011;33046;52.270;6.832;2022-11-20T03:24:36;10.57;;;8.82;;
47309;SDS011;33046;52.270;6.832;2022-11-20T03:26:42;12.82;;;9.45;;
47309;SDS011;33046;52.270;6.832;2022-11-20T03:28:50;10.82;;;8.15;;
47309;SDS011;33046;52.270;6.832;2022-11-20T03:30:59;11.07;;;8.70;;
47309;SDS011;33046;52.270;6.832;2022-11-20T03:33:11;14.55;;;9.52;;
47309;SDS011;33046;52.270;6.832;2022-11-20T03:35:18;11.50;;;8.20;;
47309;SDS011;33046;52.270;6.832;2022-11-20T03:37:25;11.90;;;8.90;;
47309;SDS011;33046;52.270;6.832;2022-11-20T03:39:32;10.70;;;7.97;;
47309;SDS011;33046;52.270;6.832;2022-11-20T03:41:39;10.20;;;7.85;;
47309;SDS011;33046;52.270;6.832;2022-11-20T03:43:47;12.20;;;8.50;;
47309;SDS011;33046;52.270;6.832;2022-11-20T03:45:55;12.10;;;9.00;;
47309;SDS011;33046;52.270;6.832;2022-11-20T03:48:03;12.40;;;9.82;;
47309;SDS011;33046;52.270;6.832;2022-11-20T03:50:11;13.40;;;8.52;;
47309;SDS011;33046;52.270;6.832;2022-11-20T03:52:19;12.75;;;8.27;;
47309;SDS011;33046;52.270;6.832;2022-11-20T03:54:25;11.43;;;8.90;;
47309;SDS011;33046;52.270;6.832;2022-11-20T03:56:33;13.05;;;9.27;;
47309;SDS011;33046;52.270;6.832;2022-11-20T03:58:42;12.88;;;8.88;;
47309;SDS011;33046;52.270;6.832;2022-11-20T04:00:49;12.02;;;9.07;;
47309;SDS011;33046;52.270;6.832;2022-11-20T04:02:57;11.98;;;9.85;;
47309;SDS011;33046;52.270;6.832;2022-11-20T04:05:05;12.27;;;9.53;;
47309;SDS011;33046;52.270;6.832;2022-11-20T04:07:13;14.93;;;9.83;;
47309;SDS011;33046;52.270;6.832;2022-11-20T04:09:19;11.63;;;9.27;;
47309;SDS011;33046;52.270;6.832;2022-11-20T04:11:27;12.88;;;9.20;;
47309;SDS011;33046;52.270;6.832;2022-11-20T04:13:35;12.33;;;9.20;;
47309;SDS011;33046;52.270;6.832;2022-11-20T04:15:42;14.03;;;8.37;;
47309;SDS011;33046;52.270;6.832;2022-11-20T04:17:49;10.88;;;8.75;;
47309;SDS011;33046;52.270;6.832;2022-11-20T04:19:56;13.00;;;8.93;;
47309;SDS011;33046;52.270;6.832;2022-11-20T04:22:04;12.45;;;8.43;;
47309;SDS011;33046;52.270;6.832;2022-11-20T04:24:11;12.40;;;8.77;;
47309;SDS011;33046;52.270;6.832;2022-11-20T04:26:18;10.23;;;7.85;;
47309;SDS011;33046;52.270;6.832;2022-11-20T04:28:25;11.77;;;8.50;;
47309;SDS011;33046;52.270;6.832;2022-11-20T04:30:31;12.18;;;8.27;;
47309;SDS011;33046;52.270;6.832;2022-11-20T04:32:38;11.10;;;7.67;;
47309;SDS011;33046;52.270;6.832;2022-11-20T04:34:45;12.40;;;7.90;;
47309;SDS011;33046;52.270;6.832;2022-11-20T04:36:52;11.03;;;8.87;;
47309;SDS011;33046;52.270;6.832;2022-11-20T04:39:00;15.27;;;9.70;;
47309;SDS011;33046;52.270;6.832;2022-11-20T04:41:09;12.77;;;8.63;;
47309;SDS011;33046;52.270;6.832;2022-11-20T04:43:21;14.17;;;8.90;;
47309;SDS011;33046;52.270;6.832;2022-11-20T04:45:27;9.73;;;8.10;;
47309;SDS011;33046;52.270;6.832;2022-11-20T04:47:34;11.53;;;8.67;;
47309;SDS011;33046;52.270;6.832;2022-11-20T04:49:41;12.13;;;8.60;;
47309;SDS011;33046;52.270;6.832;2022-11-20T04:51:48;15.93;;;8.57;;
47309;SDS011;33046;52.270;6.832;2022-11-20T04:53:54;10.53;;;8.27;;
47309;SDS011;33046;52.270;6.832;2022-11-20T04:56:03;9.93;;;8.13;;
47309;SDS011;33046;52.270;6.832;2022-11-20T04:58:12;11.38;;;8.30;;
47309;SDS011;33046;52.270;6.832;2022-11-20T05:00:19;8.70;;;7.57;;
47309;SDS011;33046;52.270;6.832;2022-11-20T05:02:25;12.27;;;8.43;;
47309;SDS011;33046;52.270;6.832;2022-11-20T05:04:32;13.53;;;9.23;;
47309;SDS011;33046;52.270;6.832;2022-11-20T05:06:39;13.27;;;9.40;;
47309;SDS011;33046;52.270;6.832;2022-11-20T05:08:46;12.63;;;8.57;;
47309;SDS011;33046;52.270;6.832;2022-11-20T05:10:53;11.13;;;9.00;;
47309;SDS011;33046;52.270;6.832;2022-11-20T05:13:01;10.53;;;8.53;;
47309;SDS011;33046;52.270;6.832;2022-11-20T05:15:08;12.90;;;8.40;;
47309;SDS011;33046;52.270;6.832;2022-11-20T05:17:15;9.53;;;7.73;;
47309;SDS011;33046;52.270;6.832;2022-11-20T05:19:22;13.07;;;7.80;;
47309;SDS011;33046;52.270;6.832;2022-11-20T05:21:30;10.07;;;8.25;;
47309;SDS011;33046;52.270;6.832;2022-11-20T05:23:37;11.30;;;8.50;;
47309;SDS011;33046;52.270;6.832;2022-11-20T05:25:44;11.73;;;7.50;;
47309;SDS011;33046;52.270;6.832;2022-11-20T05:27:51;12.52;;;10.45;;
47309;SDS011;33046;52.270;6.832;2022-11-20T05:30:00;9.97;;;7.80;;
47309;SDS011;33046;52.270;6.832;2022-11-20T05:32:07;9.90;;;7.60;;
47309;SDS011;33046;52.270;6.832;2022-11-20T05:34:14;11.33;;;7.60;;
47309;SDS011;33046;52.270;6.832;2022-11-20T05:36:22;10.27;;;8.20;;
47309;SDS011;33046;52.270;6.832;2022-11-20T05:38:29;9.77;;;7.13;;
47309;SDS011;33046;52.270;6.832;2022-11-20T05:40:36;11.13;;;8.33;;
47309;SDS011;33046;52.270;6.832;2022-11-20T05:42:43;8.98;;;7.68;;
47309;SDS011;33046;52.270;6.832;2022-11-20T05:44:50;12.17;;;7.97;;
47309;SDS011;33046;52.270;6.832;2022-11-20T05:46:58;12.90;;;8.13;;
47309;SDS011;33046;52.270;6.832;2022-11-20T05:49:04;14.47;;;8.10;;
47309;SDS011;33046;52.270;6.832;2022-11-20T05:51:12;9.47;;;7.53;;
47309;SDS011;33046;52.270;6.832;2022-11-20T05:53:20;11.50;;;7.57;;
47309;SDS011;33046;52.270;6.832;2022-11-20T05:55:27;11.90;;;8.90;;
47309;SDS011;33046;52.270;6.832;2022-11-20T05:57:33;9.87;;;7.87;;
47309;SDS011;33046;52.270;6.832;2022-11-20T05:59:40;9.87;;;8.20;;
47309;SDS011;33046;52.270;6.832;2022-11-20T06:01:47;11.43;;;9.07;;
47309;SDS011;33046;52.270;6.832;2022-11-20T06:03:55;9.83;;;7.07;;
47309;SDS011;33046;52.270;6.832;2022-11-20T06:06:03;10.37;;;7.87;;
47309;SDS011;33046;52.270;6.832;2022-11-20T06:08:10;10.50;;;8.17;;
47309;SDS011;33046;52.270;6.832;2022-11-20T06:10:17;12.50;;;8.67;;
47309;SDS011;33046;52.270;6.832;2022-11-20T06:12:24;11.83;;;8.50;;
47309;SDS011;33046;52.270;6.832;2022-11-20T06:14:31;12.23;;;8.43;;
47309;SDS011;33046;52.270;6.832;2022-11-20T06:16:37;9.87;;;8.10;;
47309;SDS011;33046;52.270;6.832;2022-11-20T06:18:44;12.03;;;7.57;;
47309;SDS011;33046;52.270;6.832;2022-11-20T06:20:59;10.70;;;8.40;;
47309;SDS011;33046;52.270;6.832;2022-11-20T06:23:07;10.70;;;7.83;;
47309;SDS011;33046;52.270;6.832;2022-11-20T06:25:14;11.43;;;8.07;;
47309;SDS011;33046;52.270;6.832;2022-11-20T06:27:21;11.33;;;8.53;;
47309;SDS011;33046;52.270;6.832;2022-11-20T06:29:27;9.00;;;6.73;;
47309;SDS011;33046;52.270;6.832;2022-11-20T06:31:48;9.50;;;7.80;;
47309;SDS011;33046;52.270;6.832;2022-11-20T06:33:55;9.80;;;7.57;;
47309;SDS011;33046;52.270;6.832;2022-11-20T06:36:02;11.93;;;8.07;;
47309;SDS011;33046;52.270;6.832;2022-11-20T06:38:14;9.80;;;7.43;;
47309;SDS011;33046;52.270;6.832;2022-11-20T06:40:21;12.47;;;7.50;;
47309;SDS011;33046;52.270;6.832;2022-11-20T06:42:27;11.20;;;7.97;;
47309;SDS011;33046;52.270;6.832;2022-11-20T06:44:34;12.63;;;7.80;;
47309;SDS011;33046;52.270;6.832;2022-11-20T06:46:41;14.87;;;8.97;;
47309;SDS011;33046;52.270;6.832;2022-11-20T06:48:49;12.47;;;7.53;;
47309;SDS011;33046;52.270;6.832;2022-11-20T06:50:56;10.13;;;8.30;;
47309;SDS011;33046;52.270;6.832;2022-11-20T06:53:04;10.80;;;7.57;;
47309;SDS011;33046;52.270;6.832;2022-11-20T06:55:11;9.80;;;7.57;;
47309;SDS011;33046;52.270;6.832;2022-11-20T06:57:17;11.67;;;7.30;;
47309;SDS011;33046;52.270;6.832;2022-11-20T06:59:24;12.03;;;8.60;;
47309;SDS011;33046;52.270;6.832;2022-11-20T07:01:31;24.70;;;13.50;;
47309;SDS011;33046;52.270;6.832;2022-11-20T07:03:38;40.37;;;23.40;;
47309;SDS011;33046;52.270;6.832;2022-11-20T07:05:47;38.00;;;22.53;;
47309;SDS011;33046;52.270;6.832;2022-11-20T07:07:55;32.77;;;20.63;;
47309;SDS011;33046;52.270;6.832;2022-11-20T07:10:02;38.60;;;21.77;;
47309;SDS011;33046;52.270;6.832;2022-11-20T07:12:09;51.97;;;29.20;;
47309;SDS011;33046;52.270;6.832;2022-11-20T07:14:15;54.30;;;31.93;;
47309;SDS011;33046;52.270;6.832;2022-11-20T07:16:22;36.33;;;22.87;;
47309;SDS011;33046;52.270;6.832;2022-11-20T07:18:29;24.83;;;15.37;;
47309;SDS011;33046;52.270;6.832;2022-11-20T07:20:36;23.30;;;16.07;;
47309;SDS011;33046;52.270;6.832;2022-11-20T07:22:44;24.43;;;15.40;;
47309;SDS011;33046;52.270;6.832;2022-11-20T07:24:51;24.40;;;16.17;;
47309;SDS011;33046;52.270;6.832;2022-11-20T07:26:57;13.57;;;10.03;;
47309;SDS011;33046;52.270;6.832;2022-11-20T07:29:04;17.98;;;11.23;;
47309;SDS011;33046;52.270;6.832;2022-11-20T07:31:11;13.70;;;9.40;;
47309;SDS011;33046;52.270;6.832;2022-11-20T07:33:21;13.67;;;9.57;;
47309;SDS011;33046;52.270;6.832;2022-11-20T07:35:28;15.33;;;10.73;;
47309;SDS011;33046;52.270;6.832;2022-11-20T07:37:34;13.90;;;9.93;;
47309;SDS011;33046;52.270;6.832;2022-11-20T07:39:42;12.30;;;9.10;;
47309;SDS011;33046;52.270;6.832;2022-11-20T07:41:49;13.23;;;8.37;;
47309;SDS011;33046;52.270;6.832;2022-11-20T07:43:56;12.10;;;8.80;;
47309;SDS011;33046;52.270;6.832;2022-11-20T07:46:03;11.37;;;8.40;;
47309;SDS011;33046;52.270;6.832;2022-11-20T07:48:10;14.83;;;10.20;;
47309;SDS011;33046;52.270;6.832;2022-11-20T07:50:17;15.40;;;10.60;;
47309;SDS011;33046;52.270;6.832;2022-11-20T07:52:24;14.80;;;11.03;;
47309;SDS011;33046;52.270;6.832;2022-11-20T07:54:31;16.80;;;11.13;;
47309;SDS011;33046;52.270;6.832;2022-11-20T07:56:39;14.37;;;10.40;;
47309;SDS011;33046;52.270;6.832;2022-11-20T07:58:46;12.63;;;9.33;;
47309;SDS011;33046;52.270;6.832;2022-11-20T08:00:52;14.80;;;11.20;;
47309;SDS011;33046;52.270;6.832;2022-11-20T08:02:59;14.53;;;10.10;;
47309;SDS011;33046;52.270;6.832;2022-11-20T08:05:09;16.37;;;11.10;;
47309;SDS011;33046;52.270;6.832;2022-11-20T08:07:16;14.07;;;11.03;;
47309;SDS011;33046;52.270;6.832;2022-11-20T08:09:23;17.63;;;12.70;;
47309;SDS011;33046;52.270;6.832;2022-11-20T08:11:30;15.03;;;12.23;;
47309;SDS011;33046;52.270;6.832;2022-11-20T08:13:38;17.30;;;12.73;;
47309;SDS011;33046;52.270;6.832;2022-11-20T08:15:47;17.23;;;12.77;;
47309;SDS011;33046;52.270;6.832;2022-11-20T08:17:58;15.40;;;12.13;;
47309;SDS011;33046;52.270;6.832;2022-11-20T08:20:20;21.07;;;13.20;;
47309;SDS011;33046;52.270;6.832;2022-11-20T08:22:27;14.80;;;11.20;;
47309;SDS011;33046;52.270;6.832;2022-11-20T08:24:35;18.53;;;13.70;;
47309;SDS011;33046;52.270;6.832;2022-11-20T08:26:41;15.90;;;12.17;;
47309;SDS011;33046;52.270;6.832;2022-11-20T08:28:52;17.70;;;14.53;;
47309;SDS011;33046;52.270;6.832;2022-11-20T08:31:00;19.40;;;13.73;;
47309;SDS011;33046;52.270;6.832;2022-11-20T08:33:08;17.73;;;12.63;;
47309;SDS011;33046;52.270;6.832;2022-11-20T08:35:15;15.97;;;13.07;;
47309;SDS011;33046;52.270;6.832;2022-11-20T08:37:22;18.70;;;12.68;;
47309;SDS011;33046;52.270;6.832;2022-11-20T08:39:28;24.58;;;14.93;;
47309;SDS011;33046;52.270;6.832;2022-11-20T08:41:35;18.23;;;13.67;;
47309;SDS011;33046;52.270;6.832;2022-11-20T08:43:42;19.30;;;14.33;;
47309;SDS011;33046;52.270;6.832;2022-11-20T08:45:50;20.80;;;14.80;;
47309;SDS011;33046;52.270;6.832;2022-11-20T08:47:59;21.65;;;14.60;;
47309;SDS011;33046;52.270;6.832;2022-11-20T08:50:07;21.27;;;14.43;;
47309;SDS011;33046;52.270;6.832;2022-11-20T08:52:14;21.57;;;15.40;;
47309;SDS011;33046;52.270;6.832;2022-11-20T08:54:21;19.85;;;13.38;;
47309;SDS011;33046;52.270;6.832;2022-11-20T08:56:27;17.40;;;14.57;;
47309;SDS011;33046;52.270;6.832;2022-11-20T08:58:34;19.38;;;14.13;;
47309;SDS011;33046;52.270;6.832;2022-11-20T09:00:55;19.45;;;14.82;;
47309;SDS011;33046;52.270;6.832;2022-11-20T09:03:02;22.00;;;15.68;;
47309;SDS011;33046;52.270;6.832;2022-11-20T09:05:09;20.80;;;15.90;;
47309;SDS011;33046;52.270;6.832;2022-11-20T09:07:15;18.20;;;14.27;;
47309;SDS011;33046;52.270;6.832;2022-11-20T09:09:22;21.70;;;14.95;;
47309;SDS011;33046;52.270;6.832;2022-11-20T09:11:29;18.70;;;13.73;;
47309;SDS011;33046;52.270;6.832;2022-11-20T09:13:36;22.13;;;16.00;;
47309;SDS011;33046;52.270;6.832;2022-11-20T09:15:43;18.80;;;14.27;;
47309;SDS011;33046;52.270;6.832;2022-11-20T09:17:52;18.75;;;14.30;;
47309;SDS011;33046;52.270;6.832;2022-11-20T09:19:59;20.55;;;15.95;;
47309;SDS011;33046;52.270;6.832;2022-11-20T09:22:06;18.67;;;15.15;;
47309;SDS011;33046;52.270;6.832;2022-11-20T09:24:12;23.67;;;14.88;;
47309;SDS011;33046;52.270;6.832;2022-11-20T09:26:19;24.48;;;15.75;;
47309;SDS011;33046;52.270;6.832;2022-11-20T09:28:26;22.02;;;16.40;;
47309;SDS011;33046;52.270;6.832;2022-11-20T09:30:33;21.83;;;16.38;;
47309;SDS011;33046;52.270;6.832;2022-11-20T09:32:40;23.80;;;16.67;;
47309;SDS011;33046;52.270;6.832;2022-11-20T09:34:48;20.02;;;14.43;;
47309;SDS011;33046;52.270;6.832;2022-11-20T09:36:55;22.35;;;16.33;;
47309;SDS011;33046;52.270;6.832;2022-11-20T09:39:02;20.63;;;15.23;;
47309;SDS011;33046;52.270;6.832;2022-11-20T09:41:10;20.13;;;15.15;;
47309;SDS011;33046;52.270;6.832;2022-11-20T09:43:38;19.00;;;14.98;;
47309;SDS011;33046;52.270;6.832;2022-11-20T09:45:58;20.02;;;15.25;;
47309;SDS011;33046;52.270;6.832;2022-11-20T09:48:17;22.48;;;15.93;;
47309;SDS011;33046;52.270;6.832;2022-11-20T09:50:35;22.33;;;15.75;;
47309;SDS011;33046;52.270;6.832;2022-11-20T09:52:51;22.30;;;15.18;;
47309;SDS011;33046;52.270;6.832;2022-11-20T09:55:08;20.25;;;15.27;;
47309;SDS011;33046;52.270;6.832;2022-11-20T09:57:18;18.73;;;14.68;;
47309;SDS011;33046;52.270;6.832;2022-11-20T09:59:30;21.02;;;15.07;;
47309;SDS011;33046;52.270;6.832;2022-11-20T10:01:41;21.58;;;14.98;;
47309;SDS011;33046;52.270;6.832;2022-11-20T10:03:52;19.95;;;16.27;;
47309;SDS011;33046;52.270;6.832;2022-11-20T10:06:04;20.83;;;14.95;;
47309;SDS011;33046;52.270;6.832;2022-11-20T10:08:17;18.63;;;14.60;;
47309;SDS011;33046;52.270;6.832;2022-11-20T10:10:29;18.63;;;14.27;;
47309;SDS011;33046;52.270;6.832;2022-11-20T10:12:47;18.88;;;14.90;;
47309;SDS011;33046;52.270;6.832;2022-11-20T10:15:09;27.05;;;17.52;;
47309;SDS011;33046;52.270;6.832;2022-11-20T10:17:30;21.45;;;16.42;;
47309;SDS011;33046;52.270;6.832;2022-11-20T10:20:00;18.58;;;14.27;;
47309;SDS011;33046;52.270;6.832;2022-11-20T10:22:20;19.60;;;13.95;;
47309;SDS011;33046;52.270;6.832;2022-11-20T10:24:47;18.00;;;14.27;;
47309;SDS011;33046;52.270;6.832;2022-11-20T10:29:11;17.33;;;14.35;;
47309;SDS011;33046;52.270;6.832;2022-11-20T10:31:25;19.05;;;14.63;;
47309;SDS011;33046;52.270;6.832;2022-11-20T10:33:36;18.27;;;14.07;;
47309;SDS011;33046;52.270;6.832;2022-11-20T10:35:57;20.27;;;14.18;;
47309;SDS011;33046;52.270;6.832;2022-11-20T10:38:15;20.10;;;15.30;;
47309;SDS011;33046;52.270;6.832;2022-11-20T10:40:29;21.55;;;15.15;;
47309;SDS011;33046;52.270;6.832;2022-11-20T10:42:41;19.05;;;13.52;;
47309;SDS011;33046;52.270;6.832;2022-11-20T10:44:52;17.23;;;13.85;;
47309;SDS011;33046;52.270;6.832;2022-11-20T10:47:09;17.52;;;14.00;;
47309;SDS011;33046;52.270;6.832;2022-11-20T10:49:19;15.45;;;12.98;;
47309;SDS011;33046;52.270;6.832;2022-11-20T10:51:30;16.75;;;13.38;;
47309;SDS011;33046;52.270;6.832;2022-11-20T10:53:50;18.80;;;14.98;;
47309;SDS011;33046;52.270;6.832;2022-11-20T10:56:02;17.73;;;13.80;;
47309;SDS011;33046;52.270;6.832;2022-11-20T10:58:14;18.83;;;12.27;;
47309;SDS011;33046;52.270;6.832;2022-11-20T11:02:39;17.02;;;11.85;;
47309;SDS011;33046;52.270;6.832;2022-11-20T11:04:48;17.15;;;13.70;;
47309;SDS011;33046;52.270;6.832;2022-11-20T11:06:56;15.63;;;12.50;;
47309;SDS011;33046;52.270;6.832;2022-11-20T11:09:11;15.88;;;12.98;;
47309;SDS011;33046;52.270;6.832;2022-11-20T11:11:23;18.57;;;11.93;;
47309;SDS011;33046;52.270;6.832;2022-11-20T11:13:39;16.58;;;12.02;;
47309;SDS011;33046;52.270;6.832;2022-11-20T11:15:46;16.10;;;13.05;;
47309;SDS011;33046;52.270;6.832;2022-11-20T11:17:52;16.58;;;11.20;;
47309;SDS011;33046;52.270;6.832;2022-11-20T11:20:00;16.17;;;12.63;;
47309;SDS011;33046;52.270;6.832;2022-11-20T11:22:15;15.93;;;12.63;;
47309;SDS011;33046;52.270;6.832;2022-11-20T11:24:25;17.52;;;12.88;;
47309;SDS011;33046;52.270;6.832;2022-11-20T11:26:53;17.08;;;13.38;;
47309;SDS011;33046;52.270;6.832;2022-11-20T11:29:03;15.35;;;11.65;;
47309;SDS011;33046;52.270;6.832;2022-11-20T11:31:10;16.88;;;13.48;;
47309;SDS011;33046;52.270;6.832;2022-11-20T11:33:29;16.13;;;12.73;;
47309;SDS011;33046;52.270;6.832;2022-11-20T11:35:39;16.20;;;12.75;;
47309;SDS011;33046;52.270;6.832;2022-11-20T11:37:53;17.35;;;13.65;;
47309;SDS011;33046;52.270;6.832;2022-11-20T11:40:10;16.23;;;12.38;;
47309;SDS011;33046;52.270;6.832;2022-11-20T11:42:33;17.38;;;13.20;;
47309;SDS011;33046;52.270;6.832;2022-11-20T11:44:43;16.42;;;12.40;;
47309;SDS011;33046;52.270;6.832;2022-11-20T11:46:52;16.95;;;12.68;;
47309;SDS011;33046;52.270;6.832;2022-11-20T11:49:00;15.70;;;11.77;;
47309;SDS011;33046;52.270;6.832;2022-11-20T11:51:20;18.17;;;13.38;;
47309;SDS011;33046;52.270;6.832;2022-11-20T11:53:26;17.00;;;13.27;;
47309;SDS011;33046;52.270;6.832;2022-11-20T11:55:36;16.17;;;12.77;;
47309;SDS011;33046;52.270;6.832;2022-11-20T11:57:49;16.17;;;11.73;;
47309;SDS011;33046;52.270;6.832;2022-11-20T12:00:01;18.25;;;12.07;;
47309;SDS011;33046;52.270;6.832;2022-11-20T12:02:15;16.90;;;11.32;;
47309;SDS011;33046;52.270;6.832;2022-11-20T12:04:36;13.82;;;10.65;;
47309;SDS011;33046;52.270;6.832;2022-11-20T12:06:50;14.63;;;11.13;;
47309;SDS011;33046;52.270;6.832;2022-11-20T12:09:04;14.48;;;12.02;;
47309;SDS011;33046;52.270;6.832;2022-11-20T12:11:16;15.07;;;11.77;;
47309;SDS011;33046;52.270;6.832;2022-11-20T12:13:32;14.90;;;11.07;;
47309;SDS011;33046;52.270;6.832;2022-11-20T12:15:46;14.00;;;10.75;;
47309;SDS011;33046;52.270;6.832;2022-11-20T12:17:54;13.63;;;11.90;;
47309;SDS011;33046;52.270;6.832;2022-11-20T12:20:01;14.43;;;12.15;;
47309;SDS011;33046;52.270;6.832;2022-11-20T12:22:10;12.98;;;11.57;;
47309;SDS011;33046;52.270;6.832;2022-11-20T12:24:37;21.67;;;14.85;;
47309;SDS011;33046;52.270;6.832;2022-11-20T12:26:58;16.83;;;12.93;;
47309;SDS011;33046;52.270;6.832;2022-11-20T12:29:19;13.27;;;11.02;;
47309;SDS011;33046;52.270;6.832;2022-11-20T12:31:45;16.27;;;11.73;;
47309;SDS011;33046;52.270;6.832;2022-11-20T12:34:21;29.48;;;19.55;;
47309;SDS011;33046;52.270;6.832;2022-11-20T12:36:39;17.73;;;13.23;;
47309;SDS011;33046;52.270;6.832;2022-11-20T12:39:51;13.93;;;12.32;;
47309;SDS011;33046;52.270;6.832;2022-11-20T12:42:05;11.63;;;10.03;;
47309;SDS011;33046;52.270;6.832;2022-11-20T12:44:32;11.80;;;10.38;;
47309;SDS011;33046;52.270;6.832;2022-11-20T12:46:53;11.07;;;9.68;;
47309;SDS011;33046;52.270;6.832;2022-11-20T12:49:13;10.32;;;9.13;;